Time;durP1;ratioP1;P1;durP2;ratioP2;P2;SDS_P1;SDS_P2;PMS_P1;PMS_P2;Temp;Humidity;BMP_temperature;BMP_pressure;BME280_temperature;BME280_humidity;BME280_pressure;Samples;Min_cycle;Max_cycle;Signal;HPM_P1;HPM_P2
2023/07/16 00:00:30;;;;;;;5.87;2.47;;;;;;;;;;5071167;28;20039;-59
2023/07/16 00:02:55;;;;;;;5.07;2.43;;;;;;;;;;5070512;28;20017;-59
2023/07/16 00:05:21;;;;;;;6.33;2.43;;;;;;;;;;5071147;28;20020;-59
2023/07/16 00:07:46;;;;;;;6.38;2.47;;;;;;;;;;5070897;28;20035;-60
2023/07/16 00:10:12;;;;;;;6.22;2.58;;;;;;;;;;5069401;28;20078;-61
2023/07/16 00:12:37;;;;;;;5.07;2.33;;;;;;;;;;5070331;28;20016;-61
2023/07/16 00:15:02;;;;;;;7.57;2.42;;;;;;;;;;5071230;28;20369;-60
2023/07/16 00:17:28;;;;;;;7.65;2.45;;;;;;;;;;5070952;28;20085;-58
2023/07/16 00:19:53;;;;;;;5.87;2.50;;;;;;;;;;5070843;28;20039;-59
2023/07/16 00:22:18;;;;;;;5.73;2.20;;;;;;;;;;5070683;28;20468;-60
2023/07/16 00:24:43;;;;;;;5.88;2.50;;;;;;;;;;5070568;28;20104;-60
2023/07/16 00:27:08;;;;;;;6.03;2.70;;;;;;;;;;5070695;28;20476;-60
2023/07/16 00:29:33;;;;;;;6.77;2.80;;;;;;;;;;5070655;28;20077;-60
2023/07/16 00:31:59;;;;;;;5.50;2.50;;;;;;;;;;5070616;28;20033;-60
2023/07/16 00:34:24;;;;;;;5.53;2.47;;;;;;;;;;5054794;28;20036;-60
2023/07/16 00:36:49;;;;;;;9.87;3.07;;;;;;;;;;5050707;28;20447;-59
2023/07/16 00:39:14;;;;;;;7.67;2.50;;;;;;;;;;5050661;28;20480;-59
2023/07/16 00:41:39;;;;;;;5.38;2.42;;;;;;;;;;5050678;28;20017;-59
2023/07/16 00:44:05;;;;;;;5.88;2.67;;;;;;;;;;5064350;28;20020;-61
2023/07/16 00:46:30;;;;;;;5.77;2.80;;;;;;;;;;5070289;28;20498;-59
2023/07/16 00:48:55;;;;;;;7.57;2.43;;;;;;;;;;5070432;28;20569;-60
2023/07/16 00:51:22;;;;;;;6.93;2.45;;;;;;;;;;5070869;28;20116;-60
2023/07/16 00:53:47;;;;;;;6.30;2.22;;;;;;;;;;5068481;28;20032;-61
2023/07/16 00:56:15;;;;;;;5.97;2.40;;;;;;;;;;5070578;28;20033;-60
2023/07/16 00:58:40;;;;;;;5.38;2.60;;;;;;;;;;5070325;28;20033;-61
2023/07/16 01:01:05;;;;;;;6.27;2.20;;;;;;;;;;5070649;28;20015;-59
2023/07/16 01:03:31;;;;;;;8.87;2.80;;;;;;;;;;5069713;28;20029;-59
2023/07/16 01:06:18;;;;;;;7.43;2.50;;;;;;;;;;5070659;28;20025;-60
2023/07/16 01:08:59;;;;;;;6.03;2.45;;;;;;;;;;5070402;28;20095;-60
2023/07/16 01:11:25;;;;;;;5.57;2.30;;;;;;;;;;5074196;28;20470;-60
2023/07/16 01:13:50;;;;;;;5.35;2.25;;;;;;;;;;5073297;28;20083;-60
2023/07/16 01:16:22;;;;;;;5.47;2.25;;;;;;;;;;5074303;28;20357;-60
2023/07/16 01:18:47;;;;;;;5.38;2.03;;;;;;;;;;5074397;28;20039;-60
2023/07/16 01:21:12;;;;;;;4.88;2.03;;;;;;;;;;5074021;28;20020;-60
2023/07/16 01:23:45;;;;;;;6.32;2.17;;;;;;;;;;5073578;28;20024;-59
2023/07/16 01:26:32;;;;;;;4.65;2.20;;;;;;;;;;5074119;28;20025;-58
2023/07/16 01:29:03;;;;;;;5.70;2.22;;;;;;;;;;5053980;28;20017;-59
2023/07/16 01:31:29;;;;;;;4.53;2.13;;;;;;;;;;5054340;28;20033;-59
2023/07/16 01:33:54;;;;;;;4.27;2.03;;;;;;;;;;5053693;28;20033;-59
2023/07/16 01:36:20;;;;;;;4.20;1.80;;;;;;;;;;5054503;28;20021;-59
2023/07/16 01:38:45;;;;;;;;;;;;;;;;;;5055855;28;20119;-58
2023/07/16 01:41:10;;;;;;;4.78;1.90;;;;;;;;;;5074032;28;19909;-59
2023/07/16 01:43:36;;;;;;;5.03;2.00;;;;;;;;;;5073009;28;20078;-59
2023/07/16 01:46:01;;;;;;;;;;;;;;;;;;5074215;28;20017;-59
2023/07/16 01:48:26;;;;;;;5.63;1.90;;;;;;;;;;5074041;28;19908;-59
2023/07/16 01:50:51;;;;;;;4.32;1.88;;;;;;;;;;5073603;28;20055;-60
2023/07/16 01:53:16;;;;;;;6.18;2.10;;;;;;;;;;5072816;28;20098;-58
2023/07/16 01:55:41;;;;;;;4.70;1.90;;;;;;;;;;5073465;28;20028;-59
2023/07/16 01:58:07;;;;;;;6.67;1.90;;;;;;;;;;5073668;28;20395;-59
2023/07/16 02:00:32;;;;;;;;;;;;;;;;;;5073864;28;20210;-59
2023/07/16 02:02:57;;;;;;;4.03;1.60;;;;;;;;;;5071558;28;20011;-59
2023/07/16 02:05:23;;;;;;;4.93;1.60;;;;;;;;;;5073581;28;20025;-61
2023/07/16 02:07:48;;;;;;;3.67;1.30;;;;;;;;;;5073244;28;20033;-60
2023/07/16 02:10:13;;;;;;;4.10;1.33;;;;;;;;;;5073321;28;20401;-61
2023/07/16 02:12:38;;;;;;;4.67;1.57;;;;;;;;;;5072757;28;20081;-61
2023/07/16 02:15:03;;;;;;;;;;;;;;;;;;5073627;28;20021;-61
2023/07/16 02:17:29;;;;;;;3.28;1.30;;;;;;;;;;5062803;28;20281;-59
2023/07/16 02:19:54;;;;;;;3.50;1.30;;;;;;;;;;5053236;28;20028;-59
2023/07/16 02:22:19;;;;;;;2.78;1.10;;;;;;;;;;5052646;28;20442;-60
2023/07/16 02:24:45;;;;;;;3.00;1.23;;;;;;;;;;5052264;28;20028;-61
2023/07/16 02:27:10;;;;;;;;;;;;;;;;;;5073237;28;20024;-61
2023/07/16 02:29:35;;;;;;;5.45;1.48;;;;;;;;;;5073119;28;19999;-61
2023/07/16 02:32:00;;;;;;;3.80;1.60;;;;;;;;;;5072904;28;20012;-61
2023/07/16 02:34:25;;;;;;;3.97;1.23;;;;;;;;;;5085811;28;20081;-60
2023/07/16 02:36:51;;;;;;;4.37;1.30;;;;;;;;;;5092956;28;20047;-59
2023/07/16 02:39:16;;;;;;;3.67;1.30;;;;;;;;;;5092835;28;20028;-60
2023/07/16 02:41:41;;;;;;;3.47;1.20;;;;;;;;;;5092809;28;20031;-58
2023/07/16 02:44:08;;;;;;;4.30;1.40;;;;;;;;;;5061638;28;20024;-59
2023/07/16 02:46:34;;;;;;;4.78;1.27;;;;;;;;;;5052772;28;20037;-62
2023/07/16 02:48:59;;;;;;;5.15;1.30;;;;;;;;;;5052781;28;20446;-59
2023/07/16 02:51:24;;;;;;;3.37;0.93;;;;;;;;;;5052591;28;20013;-59
2023/07/16 02:53:50;;;;;;;3.33;1.00;;;;;;;;;;5051356;28;20480;-58
2023/07/16 02:56:16;;;;;;;3.38;1.00;;;;;;;;;;5052278;28;20021;-60
2023/07/16 02:58:41;;;;;;;4.07;0.93;;;;;;;;;;5052420;28;20100;-60
2023/07/16 03:01:07;;;;;;;3.40;0.97;;;;;;;;;;5052505;28;20053;-62
2023/07/16 03:03:32;;;;;;;3.03;0.90;;;;;;;;;;5052084;28;20017;-62
2023/07/16 03:05:57;;;;;;;4.03;1.20;;;;;;;;;;5052085;28;20421;-61
2023/07/16 03:08:26;;;;;;;2.88;1.10;;;;;;;;;;5052238;28;20021;-63
2023/07/16 03:10:51;;;;;;;3.28;1.10;;;;;;;;;;5052125;28;20078;-60
2023/07/16 03:13:16;;;;;;;3.60;1.30;;;;;;;;;;5051727;28;20025;-63
2023/07/16 03:15:41;;;;;;;4.57;1.23;;;;;;;;;;5052135;28;20544;-61
2023/07/16 03:18:06;;;;;;;4.28;1.10;;;;;;;;;;5051989;28;20029;-61
2023/07/16 03:20:31;;;;;;;4.60;1.30;;;;;;;;;;5051856;28;20029;-62
2023/07/16 03:22:57;;;;;;;4.90;1.30;;;;;;;;;;5056545;28;20487;-63
2023/07/16 03:25:22;;;;;;;5.63;1.38;;;;;;;;;;5072163;28;20050;-62
2023/07/16 03:27:47;;;;;;;3.60;1.20;;;;;;;;;;5071889;28;20040;-62
2023/07/16 03:30:12;;;;;;;4.07;1.20;;;;;;;;;;5071856;28;20035;-59
2023/07/16 03:32:37;;;;;;;5.87;1.40;;;;;;;;;;5070551;28;20020;-61
2023/07/16 03:35:03;;;;;;;6.03;1.15;;;;;;;;;;5071793;28;20027;-60
2023/07/16 03:37:28;;;;;;;4.27;1.20;;;;;;;;;;5071600;28;20024;-63
2023/07/16 03:39:53;;;;;;;5.27;1.30;;;;;;;;;;5071428;28;20028;-63
2023/07/16 03:42:18;;;;;;;6.22;1.60;;;;;;;;;;5071804;28;20024;-61
2023/07/16 03:44:44;;;;;;;5.70;1.43;;;;;;;;;;5071402;28;20687;-63
2023/07/16 03:47:09;;;;;;;3.97;1.38;;;;;;;;;;5071941;28;20471;-61
2023/07/16 03:49:34;;;;;;;4.37;1.20;;;;;;;;;;5072052;28;20031;-62
2023/07/16 03:52:00;;;;;;;4.28;1.30;;;;;;;;;;5072130;28;20100;-61
2023/07/16 03:54:25;;;;;;;3.67;1.30;;;;;;;;;;5071158;28;20032;-60
2023/07/16 03:56:50;;;;;;;3.47;1.20;;;;;;;;;;5071461;28;20019;-63
2023/07/16 03:59:15;;;;;;;5.20;1.50;;;;;;;;;;5073837;28;20037;-62
2023/07/16 04:01:40;;;;;;;5.05;1.60;;;;;;;;;;5080060;28;20032;-61
2023/07/16 04:04:06;;;;;;;4.23;1.50;;;;;;;;;;5090999;28;20020;-60
2023/07/16 04:06:31;;;;;;;5.32;1.30;;;;;;;;;;5091588;28;20016;-61
2023/07/16 04:08:56;;;;;;;3.92;1.50;;;;;;;;;;5091484;28;20020;-62
2023/07/16 04:11:21;;;;;;;3.93;1.50;;;;;;;;;;5091262;28;20039;-62
2023/07/16 04:13:46;;;;;;;6.82;1.50;;;;;;;;;;5090978;28;20027;-62
2023/07/16 04:16:12;;;;;;;5.77;1.50;;;;;;;;;;5091431;28;20187;-60
2023/07/16 04:18:37;;;;;;;4.83;1.57;;;;;;;;;;5091321;28;20047;-62
2023/07/16 04:21:02;;;;;;;3.50;1.50;;;;;;;;;;5091018;28;20023;-60
2023/07/16 04:23:27;;;;;;;3.70;1.47;;;;;;;;;;5082680;28;20017;-60
2023/07/16 04:25:53;;;;;;;3.92;1.52;;;;;;;;;;5071001;28;20024;-60
2023/07/16 04:28:19;;;;;;;4.30;1.50;;;;;;;;;;5070518;28;20082;-62
2023/07/16 04:30:44;;;;;;;6.07;1.90;;;;;;;;;;5052264;28;20021;-63
2023/07/16 04:33:09;;;;;;;4.70;1.60;;;;;;;;;;5051350;28;20432;-60
2023/07/16 04:35:34;;;;;;;4.67;1.80;;;;;;;;;;5052107;28;20485;-61
2023/07/16 04:37:59;;;;;;;4.23;1.60;;;;;;;;;;5050947;28;20033;-63
2023/07/16 04:40:25;;;;;;;6.33;2.40;;;;;;;;;;5050957;28;20465;-61
2023/07/16 04:42:50;;;;;;;5.23;1.80;;;;;;;;;;5050483;28;20027;-60
2023/07/16 04:45:15;;;;;;;4.53;1.90;;;;;;;;;;5050892;28;20066;-62
2023/07/16 04:47:40;;;;;;;6.03;2.10;;;;;;;;;;5050936;28;20040;-63
2023/07/16 04:50:06;;;;;;;5.87;2.10;;;;;;;;;;5050783;28;20078;-60
2023/07/16 04:52:31;;;;;;;5.25;2.10;;;;;;;;;;5049934;28;20025;-61
2023/07/16 04:54:56;;;;;;;5.87;2.40;;;;;;;;;;5050735;28;20036;-61
2023/07/16 04:57:21;;;;;;;4.53;1.90;;;;;;;;;;5051052;28;20075;-62
2023/07/16 04:59:46;;;;;;;4.77;1.67;;;;;;;;;;5050742;28;20695;-61
2023/07/16 05:02:12;;;;;;;5.20;2.00;;;;;;;;;;5050417;28;20024;-59
2023/07/16 05:04:37;;;;;;;4.00;1.70;;;;;;;;;;5051779;28;20017;-60
2023/07/16 05:07:02;;;;;;;6.23;2.07;;;;;;;;;;5051187;28;20052;-61
2023/07/16 05:09:28;;;;;;;6.18;2.10;;;;;;;;;;5050428;28;20112;-62
2023/07/16 05:11:53;;;;;;;5.57;1.73;;;;;;;;;;5050300;28;20013;-62
2023/07/16 05:14:18;;;;;;;5.15;1.90;;;;;;;;;;5050015;28;20098;-62
2023/07/16 05:16:43;;;;;;;6.10;2.07;;;;;;;;;;5050391;28;20383;-62
2023/07/16 05:19:09;;;;;;;4.37;1.80;;;;;;;;;;5050337;28;20087;-61
2023/07/16 05:21:34;;;;;;;4.20;1.70;;;;;;;;;;5050340;28;20074;-61
2023/07/16 05:23:59;;;;;;;4.53;1.80;;;;;;;;;;5065879;28;20028;-63
2023/07/16 05:26:24;;;;;;;4.63;1.70;;;;;;;;;;5070240;28;20555;-63
2023/07/16 05:28:49;;;;;;;5.53;1.90;;;;;;;;;;5070264;28;20020;-60
2023/07/16 05:31:14;;;;;;;4.32;1.98;;;;;;;;;;5068522;28;20111;-62
2023/07/16 05:33:40;;;;;;;4.43;1.70;;;;;;;;;;5069745;28;20024;-62
2023/07/16 05:36:05;;;;;;;4.97;1.80;;;;;;;;;;5070241;28;20029;-62
2023/07/16 05:38:30;;;;;;;4.43;1.50;;;;;;;;;;5069832;28;20066;-62
2023/07/16 05:40:59;;;;;;;4.00;2.03;;;;;;;;;;5070277;28;20379;-63
2023/07/16 05:43:24;;;;;;;5.15;1.85;;;;;;;;;;5083094;28;20042;-62
2023/07/16 05:45:50;;;;;;;4.90;2.08;;;;;;;;;;5090344;28;20474;-62
2023/07/16 05:48:15;;;;;;;4.40;1.55;;;;;;;;;;5090326;28;20095;-62
2023/07/16 05:50:40;;;;;;;4.28;1.60;;;;;;;;;;5070623;28;20029;-62
2023/07/16 05:53:05;;;;;;;3.80;1.70;;;;;;;;;;5069199;28;20033;-62
2023/07/16 05:55:30;;;;;;;4.77;1.90;;;;;;;;;;5070391;28;20404;-62
2023/07/16 05:57:55;;;;;;;4.28;1.77;;;;;;;;;;5073790;28;20651;-62
2023/07/16 06:00:21;;;;;;;5.07;1.87;;;;;;;;;;5074178;28;20078;-60
2023/07/16 06:02:46;;;;;;;4.90;2.00;;;;;;;;;;5057555;28;20115;-61
2023/07/16 06:05:11;;;;;;;4.17;1.60;;;;;;;;;;5074714;28;20021;-62
2023/07/16 06:07:36;;;;;;;3.90;1.63;;;;;;;;;;5074934;28;20028;-60
2023/07/16 06:10:01;;;;;;;4.32;1.42;;;;;;;;;;5078011;28;20021;-60
2023/07/16 06:12:27;;;;;;;4.10;1.73;;;;;;;;;;5062212;28;20112;-60
2023/07/16 06:14:53;;;;;;;5.53;1.80;;;;;;;;;;5053785;28;20029;-61
2023/07/16 06:17:18;;;;;;;;;;;;;;;;;;5056756;28;20025;-62
2023/07/16 06:19:43;;;;;;;4.03;1.60;;;;;;;;;;5058783;28;19924;-60
2023/07/16 06:22:11;;;;;;;3.37;1.47;;;;;;;;;;5066546;28;20025;-61
2023/07/16 06:24:36;;;;;;;3.70;1.50;;;;;;;;;;5067229;28;20056;-62
2023/07/16 06:27:02;;;;;;;3.97;1.53;;;;;;;;;;5073225;28;20097;-62
2023/07/16 06:29:27;;;;;;;4.03;1.98;;;;;;;;;;5070396;28;20369;-62
2023/07/16 06:31:56;;;;;;;3.90;1.70;;;;;;;;;;5072926;28;20016;-62
2023/07/16 06:34:21;;;;;;;2.95;1.30;;;;;;;;;;5072194;28;20043;-63
2023/07/16 06:36:46;;;;;;;3.50;1.40;;;;;;;;;;5072726;28;20016;-60
2023/07/16 06:39:12;;;;;;;3.17;1.50;;;;;;;;;;5072567;28;20457;-60
2023/07/16 06:41:37;;;;;;;3.92;1.60;;;;;;;;;;5072891;28;20082;-60
2023/07/16 06:44:02;;;;;;;3.42;1.40;;;;;;;;;;5071920;28;20021;-61
2023/07/16 06:46:27;;;;;;;4.33;1.30;;;;;;;;;;5072393;28;20455;-61
2023/07/16 06:48:52;;;;;;;3.90;1.40;;;;;;;;;;5072421;28;20055;-63
2023/07/16 06:51:17;;;;;;;4.22;1.50;;;;;;;;;;5072445;28;20043;-62
2023/07/16 06:53:43;;;;;;;4.33;1.70;;;;;;;;;;5069141;28;20476;-61
2023/07/16 06:56:08;;;;;;;4.23;1.60;;;;;;;;;;5065870;28;20032;-61
2023/07/16 06:58:33;;;;;;;4.90;1.40;;;;;;;;;;5070384;28;20032;-62
2023/07/16 07:00:59;;;;;;;3.55;1.35;;;;;;;;;;5072463;28;20430;-62
2023/07/16 07:03:24;;;;;;;4.78;1.65;;;;;;;;;;5071814;28;20438;-60
2023/07/16 07:05:49;;;;;;;3.20;1.42;;;;;;;;;;5072358;28;20486;-60
2023/07/16 07:08:14;;;;;;;2.85;1.20;;;;;;;;;;5070701;28;20024;-62
2023/07/16 07:10:40;;;;;;;3.20;1.43;;;;;;;;;;5072314;28;20031;-61
2023/07/16 07:13:05;;;;;;;;;;;;;;;;;;5072165;28;20434;-62
2023/07/16 07:15:31;;;;;;;3.15;1.40;;;;;;;;;;5072038;28;19908;-62
2023/07/16 07:17:56;;;;;;;4.10;1.48;;;;;;;;;;5071952;28;20138;-62
2023/07/16 07:20:21;;;;;;;3.78;1.40;;;;;;;;;;5071603;28;20058;-61
2023/07/16 07:22:46;;;;;;;4.63;1.27;;;;;;;;;;5071043;28;20036;-63
2023/07/16 07:25:11;;;;;;;4.03;1.40;;;;;;;;;;5071972;28;20099;-63
2023/07/16 07:27:36;;;;;;;2.90;1.40;;;;;;;;;;5071932;28;20020;-61
2023/07/16 07:30:02;;;;;;;3.30;1.30;;;;;;;;;;5055871;28;20486;-62
2023/07/16 07:32:27;;;;;;;;;;;;;;;;;;5051907;28;20021;-62
2023/07/16 07:34:52;;;;;;;3.70;1.38;;;;;;;;;;5051437;28;19999;-62
2023/07/16 07:37:17;;;;;;;3.72;1.35;;;;;;;;;;5051677;28;20033;-62
2023/07/16 07:39:42;;;;;;;;;;;;;;;;;;5052397;28;20527;-62
2023/07/16 07:42:09;;;;;;;3.42;1.30;;;;;;;;;;5051430;28;19904;-63
2023/07/16 07:44:35;;;;;;;3.65;1.35;;;;;;;;;;5051133;28;20028;-61
2023/07/16 07:47:00;;;;;;;4.00;1.43;;;;;;;;;;5051613;28;20092;-62
2023/07/16 07:49:25;;;;;;;;;;;;;;;;;;5052004;28;20043;-60
2023/07/16 07:51:50;;;;;;;5.40;1.48;;;;;;;;;;5051304;28;19967;-61
2023/07/16 07:54:16;;;;;;;3.90;1.30;;;;;;;;;;5050079;28;20063;-62
2023/07/16 07:56:41;;;;;;;;;;;;;;;;;;5059265;28;20035;-60
2023/07/16 07:59:06;;;;;;;3.00;1.40;;;;;;;;;;5069854;28;19924;-61
2023/07/16 08:01:31;;;;;;;3.35;1.10;;;;;;;;;;5071376;28;20012;-61
2023/07/16 08:03:57;;;;;;;;;;;;;;;;;;5071214;28;20115;-61
2023/07/16 08:06:22;;;;;;;4.80;1.40;;;;;;;;;;5071150;28;20437;-62
2023/07/16 08:08:47;;;;;;;5.45;1.33;;;;;;;;;;5071146;28;20234;-62
2023/07/16 08:11:12;;;;;;;;;;;;;;;;;;5071576;28;20031;-61
2023/07/16 08:13:37;;;;;;;6.00;1.50;;;;;;;;;;5070513;28;19911;-60
2023/07/16 08:16:02;;;;;;;;;;;;;;;;;;5066793;28;20082;-60
2023/07/16 08:18:27;;;;;;;4.30;1.30;;;;;;;;;;5054115;28;19923;-62
2023/07/16 08:20:53;;;;;;;3.28;1.40;;;;;;;;;;5072296;28;20506;-61
2023/07/16 08:23:18;;;;;;;;;;;;;;;;;;5071846;28;20024;-62
2023/07/16 08:25:43;;;;;;;3.58;1.35;;;;;;;;;;5070970;28;19999;-62
2023/07/16 08:28:08;;;;;;;4.90;1.48;;;;;;;;;;5070738;28;20065;-61
2023/07/16 08:30:33;;;;;;;4.17;1.43;;;;;;;;;;5070749;28;20020;-59
2023/07/16 08:32:59;;;;;;;;;;;;;;;;;;5068634;28;20016;-61
2023/07/16 08:35:24;;;;;;;3.67;1.60;;;;;;;;;;5061838;28;19908;-61
2023/07/16 08:37:49;;;;;;;;;;;;;;;;;;5070129;28;20020;-61
2023/07/16 08:40:14;;;;;;;3.92;1.30;;;;;;;;;;5070562;28;19993;-61
2023/07/16 08:42:39;;;;;;;;;;;;;;;;;;5070425;28;20016;-61
2023/07/16 08:45:09;;;;;;;4.80;1.50;;;;;;;;;;5070618;28;19947;-62
2023/07/16 08:47:34;;;;;;;4.68;1.63;;;;;;;;;;5070714;28;20021;-62
2023/07/16 08:50:00;;;;;;;;;;;;;;;;;;5068940;28;20028;-61
2023/07/16 08:52:26;;;;;;;3.35;1.40;;;;;;;;;;5070061;28;19904;-61
2023/07/16 08:54:51;;;;;;;4.07;1.40;;;;;;;;;;5070397;28;20009;-62
2023/07/16 08:57:16;;;;;;;;;;;;;;;;;;5071110;28;20103;-62
2023/07/16 08:59:42;;;;;;;4.78;1.70;;;;;;;;;;5067375;28;19966;-62
2023/07/16 09:02:07;;;;;;;;;;;;;;;;;;5071077;28;20031;-61
2023/07/16 09:04:32;;;;;;;4.63;1.70;;;;;;;;;;5070047;28;19987;-62
2023/07/16 09:06:58;;;;;;;;;;;;;;;;;;5067372;28;20441;-62
2023/07/16 09:09:23;;;;;;;4.55;1.48;;;;;;;;;;5070556;28;19904;-62
2023/07/16 09:11:48;;;;;;;;;;;;;;;;;;5070941;28;20028;-62
2023/07/16 09:14:17;;;;;;;5.05;1.58;;;;;;;;;;5069838;28;19916;-61
2023/07/16 09:16:42;;;;;;;5.82;1.30;;;;;;;;;;5070610;28;20012;-60
2023/07/16 09:19:07;;;;;;;;;;;;;;;;;;5070689;28;20063;-62
2023/07/16 09:21:34;;;;;;;3.87;1.53;;;;;;;;;;5070107;28;20398;-61
2023/07/16 09:24:00;;;;;;;4.45;1.70;;;;;;;;;;5069740;28;20045;-62
2023/07/16 09:26:25;;;;;;;;;;;;;;;;;;5070804;28;20048;-63
2023/07/16 09:28:50;;;;;;;5.43;1.88;;;;;;;;;;5070258;28;20383;-62
2023/07/16 09:31:15;;;;;;;;;;;;;;;;;;5072385;28;20013;-61
2023/07/16 09:33:40;;;;;;;5.97;1.60;;;;;;;;;;5071327;28;19908;-60
2023/07/16 09:36:05;;;;;;;;;;;;;;;;;;5088016;28;20028;-61
2023/07/16 09:38:32;;;;;;;3.80;1.40;;;;;;;;;;5073896;28;19965;-60
2023/07/16 09:40:58;;;;;;;3.90;1.50;;;;;;;;;;5073835;28;20469;-62
2023/07/16 09:43:23;;;;;;;;;;;;;;;;;;5073950;28;20047;-60
2023/07/16 09:45:48;;;;;;;4.33;1.60;;;;;;;;;;5073816;28;20295;-62
2023/07/16 09:48:13;;;;;;;;;;;;;;;;;;5074230;28;20066;-60
2023/07/16 09:50:42;;;;;;;3.53;1.40;;;;;;;;;;5073700;28;19905;-61
2023/07/16 09:53:07;;;;;;;4.60;1.60;;;;;;;;;;5071444;28;20040;-60
2023/07/16 09:55:33;;;;;;;;;;;;;;;;;;5073918;28;20024;-61
2023/07/16 09:57:59;;;;;;;5.75;1.52;;;;;;;;;;5073247;28;19941;-62
2023/07/16 10:00:24;;;;;;;;;;;;;;;;;;5074180;28;20103;-61
2023/07/16 10:02:50;;;;;;;3.92;1.35;;;;;;;;;;5061736;28;19909;-62
2023/07/16 10:05:15;;;;;;;;;;;;;;;;;;5054217;28;20032;-63
2023/07/16 10:07:41;;;;;;;5.78;1.50;;;;;;;;;;5053501;28;19911;-63
2023/07/16 10:10:06;;;;;;;;;;;;;;;;;;5054177;28;20037;-63
2023/07/16 10:12:31;;;;;;;5.55;1.58;;;;;;;;;;5052507;28;19912;-61
2023/07/16 10:14:56;;;;;;;6.07;1.70;;;;;;;;;;5053370;28;20079;-62
2023/07/16 10:17:21;;;;;;;;;;;;;;;;;;5067835;28;20460;-61
2023/07/16 10:20:07;;;;;;;4.55;1.38;;;;;;;;;;5065005;28;20368;-62
2023/07/16 10:22:33;;;;;;;5.05;1.60;;;;;;;;;;5052549;28;20370;-60
2023/07/16 10:24:59;;;;;;;3.50;1.40;;;;;;;;;;5053009;28;20027;-62
2023/07/16 10:27:24;;;;;;;;;;;;;;;;;;5053726;28;20104;-61
2023/07/16 10:29:49;;;;;;;6.63;1.70;;;;;;;;;;5053832;28;20423;-61
2023/07/16 10:32:14;;;;;;;;;;;;;;;;;;5054504;28;20017;-61
2023/07/16 10:34:39;;;;;;;4.90;1.50;;;;;;;;;;5054706;28;20323;-59
2023/07/16 10:37:05;;;;;;;5.32;1.40;;;;;;;;;;5054147;28;20021;-62
2023/07/16 10:39:30;;;;;;;4.60;1.50;;;;;;;;;;5052872;28;20060;-62
2023/07/16 10:41:55;;;;;;;;;;;;;;;;;;5053113;28;20016;-62
2023/07/16 10:44:21;;;;;;;4.15;1.45;;;;;;;;;;5052108;28;20368;-60
2023/07/16 10:46:46;;;;;;;7.10;1.50;;;;;;;;;;5052688;28;20021;-61
2023/07/16 10:49:11;;;;;;;;;;;;;;;;;;5053204;28;20024;-60
2023/07/16 10:51:36;;;;;;;4.80;1.60;;;;;;;;;;5052739;28;19904;-61
2023/07/16 10:54:05;;;;;;;;;;;;;;;;;;5052545;28;20033;-61
2023/07/16 10:56:33;;;;;;;3.90;1.40;;;;;;;;;;5052469;28;20373;-60
2023/07/16 10:58:58;;;;;;;4.20;1.40;;;;;;;;;;5060073;28;20033;-62
2023/07/16 11:01:23;;;;;;;;;;;;;;;;;;5073175;28;20037;-62
2023/07/16 11:03:48;;;;;;;5.97;1.60;;;;;;;;;;5072328;28;19962;-62
2023/07/16 11:06:15;;;;;;;;;;;;;;;;;;5072932;28;20024;-61
2023/07/16 11:08:40;;;;;;;4.15;1.60;;;;;;;;;;5071241;28;19904;-63
2023/07/16 11:11:05;;;;;;;;;;;;;;;;;;5072701;28;20021;-63
2023/07/16 11:13:31;;;;;;;4.65;1.70;;;;;;;;;;5071595;28;19912;-62
2023/07/16 11:15:56;;;;;;;;;;;;;;;;;;5072231;28;20020;-62
2023/07/16 11:18:22;;;;;;;5.03;1.95;;;;;;;;;;5071908;28;19913;-63
2023/07/16 11:20:50;;;;;;;5.07;1.70;;;;;;;;;;5071918;28;20020;-62
2023/07/16 11:23:15;;;;;;;4.30;1.42;;;;;;;;;;5071229;28;20103;-60
2023/07/16 11:25:40;;;;;;;;;;;;;;;;;;5079408;28;20111;-62
2023/07/16 11:28:05;;;;;;;4.70;1.60;;;;;;;;;;5092284;28;20348;-61
2023/07/16 11:30:30;;;;;;;;;;;;;;;;;;5092242;28;20027;-61
2023/07/16 11:32:57;;;;;;;5.63;1.60;;;;;;;;;;5091646;28;19904;-61
2023/07/16 11:35:22;;;;;;;3.97;1.70;;;;;;;;;;5092240;28;20022;-61
2023/07/16 11:37:48;;;;;;;;;;;;;;;;;;5092464;28;20396;-61
2023/07/16 11:40:18;;;;;;;4.57;1.60;;;;;;;;;;5092037;28;20355;-61
2023/07/16 11:42:43;;;;;;;4.70;1.65;;;;;;;;;;5091405;28;20016;-61
2023/07/16 11:45:08;;;;;;;;;;;;;;;;;;5092084;28;20024;-58
2023/07/16 11:47:33;;;;;;;4.70;1.85;;;;;;;;;;5092042;28;19908;-62
2023/07/16 11:49:58;;;;;;;;;;;;;;;;;;5092447;28;20529;-60
2023/07/16 11:52:27;;;;;;;4.25;1.58;;;;;;;;;;5091258;28;19908;-62
2023/07/16 11:54:52;;;;;;;5.28;1.75;;;;;;;;;;5091061;28;20364;-61
2023/07/16 11:57:17;;;;;;;;;;;;;;;;;;5092171;28;20491;-62
2023/07/16 11:59:43;;;;;;;6.63;1.80;;;;;;;;;;5091416;28;19920;-60
2023/07/16 12:02:08;;;;;;;;;;;;;;;;;;5091889;28;20024;-62
2023/07/16 12:04:33;;;;;;;4.15;1.60;;;;;;;;;;5078438;28;19912;-62
2023/07/16 12:06:58;;;;;;;4.60;1.80;;;;;;;;;;5068368;28;20028;-61
2023/07/16 12:09:24;;;;;;;5.07;1.83;;;;;;;;;;5071230;28;20020;-61
2023/07/16 12:11:49;;;;;;;4.82;1.55;;;;;;;;;;5070939;28;20016;-60
2023/07/16 12:14:14;;;;;;;4.13;1.50;;;;;;;;;;5070157;28;20016;-62
2023/07/16 12:16:39;;;;;;;4.60;1.80;;;;;;;;;;5071069;28;20369;-62
2023/07/16 12:19:05;;;;;;;4.18;1.65;;;;;;;;;;5071286;28;20023;-62
2023/07/16 12:21:30;;;;;;;4.80;1.70;;;;;;;;;;5070856;28;20060;-61
2023/07/16 12:23:55;;;;;;;5.05;1.50;;;;;;;;;;5070454;28;20020;-63
2023/07/16 12:26:20;;;;;;;4.80;1.67;;;;;;;;;;5069270;28;20103;-61
2023/07/16 12:28:46;;;;;;;;;;;;;;;;;;5071190;28;20028;-62
2023/07/16 12:31:11;;;;;;;4.00;1.50;;;;;;;;;;5067832;28;19963;-61
2023/07/16 12:33:36;;;;;;;;;;;;;;;;;;5070970;28;20439;-62
2023/07/16 12:36:01;;;;;;;5.25;1.63;;;;;;;;;;5070937;28;19947;-62
2023/07/16 12:38:26;;;;;;;;;;;;;;;;;;5069088;28;20556;-62
2023/07/16 12:40:51;;;;;;;6.13;1.80;;;;;;;;;;5070596;28;19908;-61
2023/07/16 12:43:17;;;;;;;5.00;1.80;;;;;;;;;;5070959;28;20078;-61
2023/07/16 12:45:42;;;;;;;5.00;1.70;;;;;;;;;;5072921;28;20020;-61
2023/07/16 12:48:07;;;;;;;5.30;1.80;;;;;;;;;;5072308;28;20032;-61
2023/07/16 12:50:32;;;;;;;3.80;1.67;;;;;;;;;;5070637;28;20074;-61
2023/07/16 12:52:57;;;;;;;4.43;1.80;;;;;;;;;;5070039;28;20125;-60
2023/07/16 12:55:23;;;;;;;5.07;2.08;;;;;;;;;;5070374;28;20396;-60
2023/07/16 12:57:48;;;;;;;5.15;1.60;;;;;;;;;;5068124;28;20149;-60
2023/07/16 13:00:13;;;;;;;;;;;;;;;;;;5069922;28;20074;-61
2023/07/16 13:02:39;;;;;;;4.60;1.70;;;;;;;;;;5067743;28;19916;-63
2023/07/16 13:05:04;;;;;;;4.60;1.67;;;;;;;;;;5068530;28;20428;-61
2023/07/16 13:07:30;;;;;;;3.80;1.40;;;;;;;;;;5074692;28;20025;-63
2023/07/16 13:09:55;;;;;;;6.03;1.80;;;;;;;;;;5074472;28;20025;-60
2023/07/16 13:12:20;;;;;;;5.03;1.80;;;;;;;;;;5074233;28;20015;-60
2023/07/16 13:14:45;;;;;;;6.03;1.83;;;;;;;;;;5073963;28;20024;-61
2023/07/16 13:17:11;;;;;;;4.13;1.90;;;;;;;;;;5074499;28;20435;-62
2023/07/16 13:19:36;;;;;;;4.10;1.67;;;;;;;;;;5074187;28;20028;-62
2023/07/16 13:22:01;;;;;;;;;;;;;;;;;;5074884;28;20036;-59
2023/07/16 13:24:26;;;;;;;4.70;1.80;;;;;;;;;;5073669;28;19911;-61
2023/07/16 13:26:52;;;;;;;5.13;1.70;;;;;;;;;;5073950;28;20486;-62
2023/07/16 13:29:17;;;;;;;5.53;1.70;;;;;;;;;;5074133;28;20025;-62
2023/07/16 13:31:42;;;;;;;4.67;1.80;;;;;;;;;;5073902;28;20028;-60
2023/07/16 13:34:07;;;;;;;4.80;1.73;;;;;;;;;;5071047;28;20060;-62
2023/07/16 13:36:32;;;;;;;5.65;2.10;;;;;;;;;;5073668;28;20021;-62
2023/07/16 13:38:57;;;;;;;5.37;1.87;;;;;;;;;;5071236;28;20032;-61
2023/07/16 13:41:22;;;;;;;4.90;1.88;;;;;;;;;;5053801;28;20025;-62
2023/07/16 13:43:48;;;;;;;4.00;1.67;;;;;;;;;;5053293;28;20029;-62
2023/07/16 13:46:13;;;;;;;6.05;1.80;;;;;;;;;;5053811;28;20460;-61
2023/07/16 13:48:39;;;;;;;4.03;1.70;;;;;;;;;;5054290;28;20024;-62
2023/07/16 13:51:04;;;;;;;5.53;1.88;;;;;;;;;;5052453;28;20129;-62
2023/07/16 13:53:29;;;;;;;;;;;;;;;;;;5053708;28;20142;-62
2023/07/16 13:55:54;;;;;;;5.20;1.80;;;;;;;;;;5053817;28;19958;-61
2023/07/16 13:58:20;;;;;;;6.95;1.50;;;;;;;;;;5053594;28;20123;-61
2023/07/16 14:00:45;;;;;;;7.03;2.00;;;;;;;;;;5052678;28;20043;-62
2023/07/16 14:03:10;;;;;;;;;;;;;;;;;;5053538;28;20074;-62
2023/07/16 14:05:38;;;;;;;4.78;1.73;;;;;;;;;;5053769;28;20360;-62
2023/07/16 14:08:04;;;;;;;5.40;1.77;;;;;;;;;;5053407;28;20661;-62
2023/07/16 14:10:29;;;;;;;;;;;;;;;;;;5055713;28;20106;-61
2023/07/16 14:12:54;;;;;;;3.88;1.60;;;;;;;;;;5072536;28;19998;-61
2023/07/16 14:15:19;;;;;;;;;;;;;;;;;;5073753;28;20020;-61
2023/07/16 14:17:44;;;;;;;5.43;1.70;;;;;;;;;;5072749;28;19904;-62
2023/07/16 14:20:10;;;;;;;5.47;1.90;;;;;;;;;;5072838;28;20069;-62
2023/07/16 14:22:35;;;;;;;;;;;;;;;;;;5073221;28;20036;-61
2023/07/16 14:25:00;;;;;;;5.30;1.60;;;;;;;;;;5073209;28;19908;-62
2023/07/16 14:27:25;;;;;;;;;;;;;;;;;;5073349;28;20036;-62
2023/07/16 14:29:50;;;;;;;5.82;1.92;;;;;;;;;;5072737;28;20003;-61
2023/07/16 14:32:15;;;;;;;5.07;1.90;;;;;;;;;;5072437;28;20027;-62
2023/07/16 14:34:41;;;;;;;;;;;;;;;;;;5070186;28;20028;-62
2023/07/16 14:37:06;;;;;;;7.30;2.30;;;;;;;;;;5072895;28;19960;-61
2023/07/16 14:39:31;;;;;;;4.87;1.83;;;;;;;;;;5072780;28;20033;-61
2023/07/16 14:41:56;;;;;;;;;;;;;;;;;;5073284;28;20013;-61
2023/07/16 14:44:21;;;;;;;5.35;1.80;;;;;;;;;;5069768;28;19916;-60
2023/07/16 14:46:46;;;;;;;;;;;;;;;;;;5062614;28;20028;-61
2023/07/16 14:49:11;;;;;;;6.55;1.95;;;;;;;;;;5052299;28;19991;-63
2023/07/16 14:51:39;;;;;;;4.65;1.58;;;;;;;;;;5054606;28;20405;-61